createdAt,value
2022-09-17T00:01:27.380Z,6.57
2022-09-17T00:03:57.318Z,10.15
2022-09-17T00:06:26.556Z,6.63
2022-09-17T00:08:55.468Z,4.75
2022-09-17T00:11:26.586Z,7.25
2022-09-17T00:13:55.971Z,5.80
2022-09-17T00:16:27.485Z,8.25
2022-09-17T00:18:55.822Z,5.88
2022-09-17T00:21:24.037Z,5.63
2022-09-17T00:23:56.303Z,7.05
2022-09-17T00:26:26.135Z,5.55
2022-09-17T00:28:55.209Z,6.07
2022-09-17T00:31:23.943Z,5.90
2022-09-17T00:33:52.738Z,4.53
2022-09-17T00:36:21.652Z,4.15
2022-09-17T00:38:51.340Z,6.45
2022-09-17T00:41:19.704Z,5.95
2022-09-17T00:43:52.108Z,5.82
2022-09-17T00:46:34.289Z,5.90
2022-09-17T00:49:07.322Z,5.70
2022-09-17T00:51:38.518Z,11.77
2022-09-17T00:54:09.740Z,5.18
2022-09-17T00:56:40.609Z,5.70
2022-09-17T00:59:10.037Z,6.90
2022-09-17T01:01:39.119Z,5.35
2022-09-17T01:04:07.156Z,6.35
2022-09-17T01:06:39.751Z,4.68
2022-09-17T01:09:23.426Z,8.35
2022-09-17T01:12:14.978Z,5.93
2022-09-17T01:14:58.724Z,7.35
2022-09-17T01:17:33.934Z,7.50
2022-09-17T01:20:37.241Z,9.00
2022-09-17T01:23:34.722Z,8.35
2022-09-17T01:26:29.806Z,7.60
2022-09-17T01:29:10.554Z,6.70
2022-09-17T01:31:47.406Z,7.07
2022-09-17T01:34:25.082Z,9.98
2022-09-17T01:37:03.418Z,8.38
2022-09-17T01:39:43.054Z,6.57
2022-09-17T01:42:20.171Z,7.57
2022-09-17T01:44:57.664Z,6.80
2022-09-17T01:47:31.757Z,9.07
2022-09-17T01:50:04.593Z,10.35
2022-09-17T01:52:35.579Z,6.37
2022-09-17T01:55:07.091Z,5.75
2022-09-17T01:57:41.329Z,4.38
2022-09-17T02:00:12.122Z,8.02
2022-09-17T02:02:47.254Z,7.50
2022-09-17T02:05:19.277Z,7.65
2022-09-17T02:07:53.573Z,8.27
2022-09-17T02:10:25.619Z,7.57
2022-09-17T02:12:58.105Z,5.55
2022-09-17T02:15:30.105Z,6.05
2022-09-17T02:18:04.838Z,7.95
2022-09-17T02:20:40.430Z,7.57
2022-09-17T02:23:15.457Z,6.70
2022-09-17T02:25:48.660Z,6.32
2022-09-17T02:28:25.497Z,6.50
2022-09-17T02:30:53.484Z,6.88
2022-09-17T02:33:23.737Z,6.35
2022-09-17T02:35:52.001Z,8.02
2022-09-17T02:38:24.633Z,8.18
2022-09-17T02:40:57.639Z,5.93
2022-09-17T02:43:36.850Z,6.70
2022-09-17T02:46:22.865Z,5.95
2022-09-17T02:49:10.409Z,6.30
2022-09-17T02:51:48.521Z,5.93
2022-09-17T02:54:25.811Z,9.82
2022-09-17T02:57:02.409Z,6.72
2022-09-17T02:59:41.955Z,6.95
2022-09-17T03:02:17.560Z,7.13
2022-09-17T03:04:49.767Z,9.15
2022-09-17T03:07:20.539Z,8.52
2022-09-17T03:09:48.477Z,8.63
2022-09-17T03:12:16.869Z,7.88
2022-09-17T03:14:44.785Z,6.65
2022-09-17T03:17:14.938Z,7.68
2022-09-17T03:19:42.871Z,8.68
2022-09-17T03:22:12.622Z,8.07
2022-09-17T03:24:40.765Z,7.93
2022-09-17T03:27:08.762Z,7.75
2022-09-17T03:29:36.751Z,8.02
2022-09-17T03:32:05.512Z,7.28
2022-09-17T03:34:33.470Z,8.60
2022-09-17T03:37:01.414Z,11.80
2022-09-17T03:39:31.253Z,6.55
2022-09-17T03:41:59.182Z,6.40
2022-09-17T03:44:27.133Z,8.60
2022-09-17T03:46:55.098Z,6.95
2022-09-17T03:49:23.971Z,6.68
2022-09-17T03:51:51.962Z,11.65
2022-09-17T03:54:19.875Z,8.05
2022-09-17T03:56:49.161Z,6.97
2022-09-17T03:59:17.195Z,9.35
2022-09-17T04:01:45.209Z,8.00
2022-09-17T04:04:13.182Z,5.18
2022-09-17T04:06:41.084Z,9.80
2022-09-17T04:09:09.045Z,9.00
2022-09-17T04:11:36.990Z,8.35
2022-09-17T04:14:06.375Z,5.95
2022-09-17T04:16:34.322Z,8.30
2022-09-17T04:19:02.282Z,6.13
2022-09-17T04:21:30.178Z,7.80
2022-09-17T04:23:58.346Z,9.25
2022-09-17T04:26:26.270Z,6.90
2022-09-17T04:28:54.179Z,7.45
2022-09-17T04:31:25.128Z,5.85
2022-09-17T04:33:53.090Z,8.27
2022-09-17T04:36:21.090Z,6.65
2022-09-17T04:38:49.709Z,8.32
2022-09-17T04:41:17.926Z,7.95
2022-09-17T04:43:45.860Z,7.85
2022-09-17T04:46:14.753Z,7.85
2022-09-17T04:48:44.144Z,7.35
2022-09-17T04:51:12.306Z,5.95
2022-09-17T04:53:40.197Z,6.20
2022-09-17T04:56:08.090Z,6.80
2022-09-17T04:58:36.027Z,8.57
2022-09-17T05:01:04.226Z,6.78
2022-09-17T05:03:32.221Z,7.40
2022-09-17T05:06:01.928Z,7.00
2022-09-17T05:08:29.838Z,7.57
2022-09-17T05:10:57.754Z,7.38
2022-09-17T05:13:25.720Z,7.80
2022-09-17T05:15:56.591Z,5.95
2022-09-17T05:18:25.051Z,7.80
2022-09-17T05:20:53.222Z,5.38
2022-09-17T05:23:22.546Z,6.47
2022-09-17T05:25:50.776Z,9.38
2022-09-17T05:28:18.695Z,12.00
2022-09-17T05:30:46.745Z,8.65
2022-09-17T05:33:14.655Z,9.45
2022-09-17T05:35:44.205Z,8.80
2022-09-17T05:38:12.270Z,7.85
2022-09-17T05:40:41.609Z,9.13
2022-09-17T05:43:10.735Z,8.10
2022-09-17T05:45:39.021Z,10.13
2022-09-17T05:48:09.013Z,8.73
2022-09-17T05:50:37.022Z,10.52
2022-09-17T05:53:06.358Z,8.45
2022-09-17T05:55:35.108Z,9.68
2022-09-17T05:58:11.197Z,8.90
2022-09-17T06:00:41.486Z,8.32
2022-09-17T06:03:10.157Z,10.75
2022-09-17T06:05:38.167Z,12.02
2022-09-17T06:08:06.721Z,11.85
2022-09-17T06:10:37.737Z,8.55
2022-09-17T06:13:07.062Z,10.25
2022-09-17T06:15:35.012Z,12.85
2022-09-17T06:18:02.997Z,10.23
2022-09-17T06:20:30.942Z,12.05
2022-09-17T06:22:59.294Z,10.80
2022-09-17T06:25:27.606Z,11.65
2022-09-17T06:27:55.509Z,12.00
2022-09-17T06:30:24.834Z,12.35
2022-09-17T06:32:53.016Z,10.80
2022-09-17T06:35:21.072Z,11.52
2022-09-17T06:37:49.069Z,17.55
2022-09-17T06:40:17.825Z,12.32
2022-09-17T06:42:45.802Z,11.65
2022-09-17T06:45:16.743Z,11.63
2022-09-17T06:47:47.490Z,11.68
2022-09-17T06:50:15.513Z,12.32
2022-09-17T06:52:49.437Z,10.20
2022-09-17T06:55:18.169Z,11.65
2022-09-17T06:57:46.320Z,9.43
2022-09-17T07:00:15.521Z,10.68
2022-09-17T07:02:43.440Z,12.18
2022-09-17T07:05:12.816Z,10.30
2022-09-17T07:07:41.009Z,9.05
2022-09-17T07:10:09.782Z,9.43
2022-09-17T07:12:42.913Z,9.73
2022-09-17T07:15:13.980Z,17.48
2022-09-17T07:17:41.923Z,15.75
2022-09-17T07:20:12.703Z,12.68
2022-09-17T07:22:40.744Z,11.50
2022-09-17T07:25:09.595Z,8.63
2022-09-17T07:27:37.526Z,16.35
2022-09-17T07:30:06.378Z,9.77
2022-09-17T07:32:34.295Z,8.82
2022-09-17T07:35:02.224Z,13.02
2022-09-17T07:37:31.523Z,14.65
2022-09-17T07:39:59.513Z,10.00
2022-09-17T07:42:27.736Z,17.40
2022-09-17T07:44:59.817Z,16.48
2022-09-17T07:47:29.967Z,9.57
2022-09-17T07:49:57.904Z,13.15
2022-09-17T07:52:25.897Z,11.15
2022-09-17T07:54:55.181Z,8.02
2022-09-17T07:57:23.074Z,8.88
2022-09-17T07:59:50.989Z,9.10
2022-09-17T08:02:23.759Z,9.98
2022-09-17T08:04:52.178Z,8.75
2022-09-17T08:07:20.100Z,10.25
2022-09-17T08:09:48.005Z,16.75
2022-09-17T08:12:18.471Z,9.55
2022-09-17T08:14:46.423Z,19.45
2022-09-17T08:17:14.321Z,9.50
2022-09-17T08:19:42.997Z,12.75
2022-09-17T08:22:10.952Z,11.02
2022-09-17T08:24:38.902Z,9.93
2022-09-17T08:27:06.854Z,11.52
2022-09-17T08:29:36.148Z,13.40
2022-09-17T08:32:04.510Z,10.68
2022-09-17T08:34:32.420Z,14.57
2022-09-17T08:37:00.362Z,13.13
2022-09-17T08:39:28.254Z,13.57
2022-09-17T08:42:06.726Z,12.50
2022-09-17T08:44:42.500Z,12.43
2022-09-17T08:47:18.584Z,12.75
2022-09-17T08:49:52.158Z,13.45
2022-09-17T08:52:34.603Z,11.43
2022-09-17T08:55:12.402Z,12.70
2022-09-17T08:57:47.471Z,13.65
2022-09-17T09:00:20.054Z,9.55
2022-09-17T09:03:05.840Z,10.88
2022-09-17T09:05:42.454Z,11.05
2022-09-17T09:08:18.264Z,8.32
2022-09-17T09:10:51.286Z,9.65
2022-09-17T09:13:23.396Z,9.73
2022-09-17T09:15:59.442Z,9.80
2022-09-17T09:18:30.710Z,11.70
2022-09-17T09:21:12.217Z,9.30
2022-09-17T09:23:52.578Z,9.57
2022-09-17T09:26:22.125Z,8.02
2022-09-17T09:29:06.602Z,11.10
2022-09-17T09:32:01.667Z,10.48
2022-09-17T09:34:31.211Z,9.20
2022-09-17T09:37:14.445Z,8.20
2022-09-17T09:39:46.187Z,5.82
2022-09-17T09:42:21.726Z,8.88
2022-09-17T09:44:50.488Z,9.02
2022-09-17T09:47:35.276Z,7.25
2022-09-17T09:50:22.797Z,9.90
2022-09-17T09:53:04.173Z,9.05
2022-09-17T09:55:55.002Z,10.18
2022-09-17T09:58:29.213Z,8.15
2022-09-17T10:00:57.148Z,7.97
2022-09-17T10:03:32.194Z,7.68
2022-09-17T10:06:02.190Z,8.30
2022-09-17T10:08:33.067Z,7.57
2022-09-17T10:11:02.895Z,8.93
2022-09-17T10:13:32.445Z,6.47
2022-09-17T10:16:18.953Z,11.98
2022-09-17T10:18:49.482Z,11.23
2022-09-17T10:21:22.394Z,9.63
2022-09-17T10:23:51.524Z,8.63
2022-09-17T10:26:26.167Z,8.40
2022-09-17T10:28:56.921Z,6.97
2022-09-17T10:31:25.380Z,9.15
2022-09-17T10:34:03.359Z,6.22
2022-09-17T10:36:43.334Z,9.27
2022-09-17T10:39:34.180Z,6.68
2022-09-17T10:42:04.123Z,5.32
2022-09-17T10:44:35.551Z,9.40
2022-09-17T10:47:07.535Z,7.53
2022-09-17T10:49:45.536Z,7.10
2022-09-17T10:52:25.383Z,8.55
2022-09-17T10:55:20.912Z,7.07
2022-09-17T10:58:02.129Z,9.32
2022-09-17T11:00:40.007Z,7.10
2022-09-17T11:03:45.284Z,7.18
2022-09-17T11:06:27.604Z,8.52
2022-09-17T11:09:06.627Z,8.25
2022-09-17T11:11:48.258Z,6.88
2022-09-17T11:14:33.651Z,9.02
2022-09-17T11:17:11.909Z,11.27
2022-09-17T11:19:49.764Z,9.07
2022-09-17T11:22:24.982Z,8.00
2022-09-17T11:25:15.689Z,12.55
2022-09-17T11:27:57.150Z,13.52
2022-09-17T11:30:27.222Z,10.93
2022-09-17T11:33:10.619Z,8.48
2022-09-17T11:35:42.343Z,8.30
2022-09-17T11:38:18.360Z,10.40
2022-09-17T11:40:49.738Z,6.60
2022-09-17T11:43:27.397Z,9.10
2022-09-17T11:46:01.713Z,8.07
2022-09-17T11:48:37.623Z,6.88
2022-09-17T11:51:16.006Z,7.18
2022-09-17T11:53:49.432Z,7.10
2022-09-17T11:58:53.252Z,9.60
2022-09-17T12:01:29.942Z,11.52
2022-09-17T12:04:01.834Z,9.05
2022-09-17T12:06:39.592Z,8.30
2022-09-17T12:09:15.288Z,9.85
2022-09-17T12:11:48.383Z,7.63
2022-09-17T12:14:22.965Z,7.38
2022-09-17T12:16:53.844Z,8.00
2022-09-17T12:19:26.777Z,8.32
2022-09-17T12:21:59.289Z,11.57
2022-09-17T12:24:30.543Z,9.85
2022-09-17T12:27:11.166Z,9.00
2022-09-17T12:29:52.050Z,11.13
2022-09-17T12:32:36.105Z,11.98
2022-09-17T12:35:19.390Z,8.25
2022-09-17T12:38:01.737Z,10.50
2022-09-17T12:40:36.519Z,9.98
2022-09-17T12:43:28.619Z,7.60
2022-09-17T12:46:15.757Z,10.38
2022-09-17T12:49:15.672Z,9.80
2022-09-17T12:51:54.804Z,11.02
2022-09-17T12:54:58.695Z,13.15
2022-09-17T12:57:38.265Z,12.23
2022-09-17T13:00:11.447Z,7.47
2022-09-17T13:02:43.490Z,7.30
2022-09-17T13:05:36.356Z,8.23
2022-09-17T13:08:35.253Z,7.90
2022-09-17T13:11:20.842Z,8.65
2022-09-17T13:13:56.831Z,9.35
2022-09-17T13:16:33.593Z,7.18
2022-09-17T13:19:23.119Z,7.90
2022-09-17T13:21:55.783Z,11.20
2022-09-17T13:24:25.685Z,9.93
2022-09-17T13:26:56.121Z,8.43
2022-09-17T13:30:02.082Z,7.78
2022-09-17T13:32:51.101Z,6.85
2022-09-17T13:35:53.028Z,7.78
2022-09-17T13:38:24.634Z,6.70
2022-09-17T13:40:53.341Z,7.13
2022-09-17T13:43:27.173Z,8.48
2022-09-17T13:46:15.412Z,7.43
2022-09-17T13:48:53.735Z,5.75
2022-09-17T13:51:53.148Z,9.05
2022-09-17T13:54:23.795Z,7.13
2022-09-17T13:57:12.097Z,6.32
2022-09-17T13:59:52.720Z,6.95
2022-09-17T14:02:38.058Z,7.57
2022-09-17T14:05:26.599Z,5.90
2022-09-17T14:08:12.886Z,8.93
2022-09-17T14:10:45.124Z,5.90
2022-09-17T14:13:41.317Z,7.28
2022-09-17T14:16:47.186Z,9.77
2022-09-17T14:19:28.114Z,6.22
2022-09-17T14:22:02.385Z,5.93
2022-09-17T14:24:37.202Z,9.25
2022-09-17T14:27:16.921Z,5.50
2022-09-17T14:30:11.502Z,7.72
2022-09-17T14:32:43.794Z,13.18
2022-09-17T14:35:20.443Z,7.65
2022-09-17T14:37:54.917Z,6.60
2022-09-17T14:40:24.320Z,4.53
2022-09-17T14:42:56.974Z,6.32
2022-09-17T14:45:33.003Z,6.55
2022-09-17T14:48:21.054Z,5.55
2022-09-17T14:50:50.344Z,6.82
2022-09-17T14:53:21.121Z,6.15
2022-09-17T14:55:51.361Z,7.25
2022-09-17T14:58:38.734Z,6.20
2022-09-17T15:01:07.561Z,5.45
2022-09-17T15:03:35.493Z,5.10
2022-09-17T15:06:05.006Z,6.93
2022-09-17T15:08:33.422Z,5.32
2022-09-17T15:11:03.475Z,6.45
2022-09-17T15:13:33.231Z,4.32
2022-09-17T15:16:05.045Z,4.80
2022-09-17T15:18:37.379Z,6.97
2022-09-17T15:21:16.363Z,5.85
2022-09-17T15:23:45.357Z,5.97
2022-09-17T15:26:23.845Z,5.68
2022-09-17T15:28:52.330Z,5.32
2022-09-17T15:31:21.406Z,4.40
2022-09-17T15:33:49.748Z,5.38
2022-09-17T15:36:23.007Z,5.82
2022-09-17T15:38:51.946Z,5.78
2022-09-17T15:41:30.796Z,6.18
2022-09-17T15:44:29.004Z,6.05
2022-09-17T15:46:57.867Z,5.15
2022-09-17T15:49:31.806Z,6.72
2022-09-17T15:52:28.334Z,5.50
2022-09-17T15:54:56.282Z,9.55
2022-09-17T15:57:26.878Z,3.97
2022-09-17T15:59:55.905Z,7.20
2022-09-17T16:02:29.045Z,6.95
2022-09-17T16:05:55.714Z,4.47
2022-09-17T16:08:35.243Z,7.35
2022-09-17T16:11:03.161Z,13.45
2022-09-17T16:13:31.074Z,14.18
2022-09-17T16:15:59.100Z,12.80
2022-09-17T16:18:27.739Z,9.73
2022-09-17T16:20:55.639Z,8.68
2022-09-17T16:23:24.945Z,8.77
2022-09-17T16:25:53.306Z,7.35
2022-09-17T16:28:21.473Z,9.65
2022-09-17T16:30:50.544Z,5.78
2022-09-17T16:33:19.369Z,5.47
2022-09-17T16:35:47.284Z,5.82
2022-09-17T16:38:15.268Z,4.50
2022-09-17T16:40:47.240Z,3.90
2022-09-17T16:43:15.820Z,5.90
2022-09-17T16:45:43.762Z,4.55
2022-09-17T16:48:11.810Z,6.88
2022-09-17T16:50:41.986Z,4.72
2022-09-17T16:53:09.931Z,5.47
2022-09-17T16:55:37.972Z,7.18
2022-09-17T16:58:07.282Z,4.88
2022-09-17T17:00:36.160Z,6.57
2022-09-17T17:03:06.891Z,7.65
2022-09-17T17:05:38.029Z,4.45
2022-09-17T17:08:06.995Z,4.70
2022-09-17T17:10:35.398Z,8.85
2022-09-17T17:13:03.309Z,6.55
2022-09-17T17:15:32.730Z,6.47
2022-09-17T17:18:00.650Z,5.70
2022-09-17T17:20:28.563Z,7.07
2022-09-17T17:22:56.568Z,7.68
2022-09-17T17:25:24.863Z,7.35
2022-09-17T17:27:52.824Z,5.47
2022-09-17T17:30:20.799Z,7.88
2022-09-17T17:32:53.520Z,4.78
2022-09-17T17:35:21.918Z,5.43
2022-09-17T17:37:50.671Z,5.90
2022-09-17T17:40:18.717Z,5.28
2022-09-17T17:42:47.604Z,7.38
2022-09-17T17:45:15.980Z,5.40
2022-09-17T17:47:43.886Z,5.28
2022-09-17T17:50:13.202Z,7.75
2022-09-17T17:52:43.565Z,4.60
2022-09-17T17:55:11.604Z,5.07
2022-09-17T17:57:39.579Z,8.27
2022-09-17T18:00:09.145Z,4.40
2022-09-17T18:02:37.149Z,7.80
2022-09-17T18:05:05.334Z,5.88
2022-09-17T18:07:34.802Z,6.40
2022-09-17T18:10:02.766Z,5.32
2022-09-17T18:12:30.704Z,5.78
2022-09-17T18:14:58.617Z,7.57
2022-09-17T18:17:26.544Z,5.30
2022-09-17T18:19:56.424Z,7.05
2022-09-17T18:22:24.360Z,5.30
2022-09-17T18:24:53.687Z,7.00
2022-09-17T18:27:21.595Z,4.53
2022-09-17T18:29:49.630Z,7.00
2022-09-17T18:32:17.538Z,4.80
2022-09-17T18:34:45.461Z,4.13
2022-09-17T18:37:13.400Z,8.05
2022-09-17T18:42:30.641Z,7.57
2022-09-17T18:44:58.559Z,7.18
2022-09-17T18:47:26.511Z,6.90
2022-09-17T18:49:54.527Z,5.45
2022-09-17T18:52:22.597Z,4.95
2022-09-17T18:54:50.492Z,4.68
2022-09-17T18:57:18.405Z,5.32
2022-09-17T18:59:47.758Z,5.63
2022-09-17T19:02:15.771Z,5.07
2022-09-17T19:04:43.775Z,5.93
2022-09-17T19:07:11.692Z,6.60
2022-09-17T19:09:39.583Z,5.50
2022-09-17T19:12:07.672Z,5.88
2022-09-17T19:14:35.590Z,5.13
2022-09-17T19:17:04.920Z,3.53
2022-09-17T19:19:32.865Z,4.45
2022-09-17T19:22:00.789Z,5.07
2022-09-17T19:24:28.725Z,5.30
2022-09-17T19:26:56.612Z,4.18
2022-09-17T19:29:24.603Z,5.50
2022-09-17T19:31:52.529Z,4.82
2022-09-17T19:34:21.838Z,5.28
2022-09-17T19:36:49.773Z,4.07
2022-09-17T19:39:17.935Z,4.80
2022-09-17T19:41:45.833Z,5.25
2022-09-17T19:44:13.731Z,2.92
2022-09-17T19:46:41.802Z,4.20
2022-09-17T19:49:10.879Z,5.10
2022-09-17T19:51:40.205Z,3.05
2022-09-17T19:54:09.606Z,4.45
2022-09-17T19:56:37.525Z,3.03
2022-09-17T19:59:05.539Z,3.85
2022-09-17T20:01:34.927Z,4.20
2022-09-17T20:04:03.491Z,4.43
2022-09-17T20:06:34.080Z,3.50
2022-09-17T20:09:03.522Z,3.85
2022-09-17T20:11:31.458Z,4.18
2022-09-17T20:14:03.109Z,4.75
2022-09-17T20:16:31.635Z,3.97
2022-09-17T20:18:59.821Z,4.60
2022-09-17T20:21:29.910Z,3.38
2022-09-17T20:23:58.480Z,5.10
2022-09-17T20:26:28.508Z,3.85
2022-09-17T20:28:56.635Z,3.90
2022-09-17T20:31:25.829Z,3.88
2022-09-17T20:33:54.494Z,4.60
2022-09-17T20:36:25.286Z,3.20
2022-09-17T20:41:43.199Z,4.07
2022-09-17T20:44:11.291Z,4.47
2022-09-17T20:46:39.274Z,4.13
2022-09-17T20:49:07.405Z,3.60
2022-09-17T20:51:35.463Z,4.90
2022-09-17T20:54:03.498Z,4.88
2022-09-17T20:56:33.666Z,3.28
2022-09-17T20:59:09.448Z,4.47
2022-09-17T21:01:38.078Z,5.32
2022-09-17T21:04:08.293Z,4.57
2022-09-17T21:06:38.301Z,3.80
2022-09-17T21:09:07.410Z,4.22
2022-09-17T21:11:35.921Z,3.88
2022-09-17T21:14:05.461Z,3.83
2022-09-17T21:16:33.419Z,3.63
2022-09-17T21:19:03.501Z,3.03
2022-09-17T21:21:34.502Z,5.25
2022-09-17T21:24:03.496Z,3.85
2022-09-17T21:26:32.063Z,4.85
2022-09-17T21:28:59.990Z,3.95
2022-09-17T21:31:32.941Z,4.18
2022-09-17T21:34:03.649Z,8.18
2022-09-17T21:36:33.647Z,3.65
2022-09-17T21:39:02.802Z,4.85
2022-09-17T21:41:31.713Z,3.30
2022-09-17T21:43:59.736Z,2.75
2022-09-17T21:46:30.396Z,3.03
2022-09-17T21:49:00.145Z,3.05
2022-09-17T21:51:30.659Z,2.05
2022-09-17T21:54:00.614Z,5.53
2022-09-17T21:56:29.834Z,4.45
2022-09-17T21:58:59.932Z,3.63
2022-09-17T22:01:32.329Z,4.40
2022-09-17T22:04:02.142Z,3.28
2022-09-17T22:06:31.825Z,4.32
2022-09-17T22:09:02.163Z,4.80
2022-09-17T22:11:33.760Z,3.92
2022-09-17T22:14:05.253Z,3.63
2022-09-17T22:16:36.078Z,3.08
2022-09-17T22:19:05.762Z,4.63
2022-09-17T22:21:36.165Z,6.57
2022-09-17T22:24:05.110Z,4.32
2022-09-17T22:26:34.562Z,3.50
2022-09-17T22:29:03.012Z,4.03
2022-09-17T22:31:31.511Z,2.83
2022-09-17T22:34:01.394Z,3.97
2022-09-17T22:36:30.237Z,4.53
2022-09-17T22:38:59.608Z,3.17
2022-09-17T22:41:29.089Z,3.92
2022-09-17T22:43:58.906Z,6.20
2022-09-17T22:46:29.179Z,5.88
2022-09-17T22:48:57.593Z,3.22
2022-09-17T22:51:28.647Z,4.25
2022-09-17T22:53:56.772Z,3.20
2022-09-17T22:56:25.362Z,3.67
2022-09-17T22:58:53.255Z,3.72
2022-09-17T23:01:23.866Z,3.08
2022-09-17T23:03:53.624Z,2.72
2022-09-17T23:06:23.894Z,3.03
2022-09-17T23:08:53.837Z,3.58
2022-09-17T23:11:24.226Z,3.63
2022-09-17T23:13:52.757Z,5.00
2022-09-17T23:16:21.123Z,4.35
2022-09-17T23:18:49.088Z,3.05
2022-09-17T23:21:18.704Z,4.03
2022-09-17T23:23:48.783Z,3.30
2022-09-17T23:26:20.373Z,2.80
2022-09-17T23:28:48.856Z,3.65
2022-09-17T23:31:18.352Z,3.92
2022-09-17T23:33:46.945Z,4.00
2022-09-17T23:36:17.011Z,6.82
2022-09-17T23:38:46.102Z,4.25
2022-09-17T23:41:17.117Z,6.60
2022-09-17T23:43:48.837Z,2.72
2022-09-17T23:46:17.688Z,2.95
2022-09-17T23:48:45.752Z,3.47
2022-09-17T23:51:13.937Z,3.67
2022-09-17T23:53:41.879Z,3.70
2022-09-17T23:56:13.622Z,5.18
2022-09-17T23:58:41.828Z,5.93
